Time;durP1;ratioP1;P1;durP2;ratioP2;P2;SDS_P1;SDS_P2;PMS_P1;PMS_P2;Temp;Humidity;BMP_temperature;BMP_pressure;BME280_temperature;BME280_humidity;BME280_pressure;Samples;Min_cycle;Max_cycle;Signal;HPM_P1;HPM_P2
2022/05/14 00:00:47;;;;;;;5.50;2.80;;;;;;;11.60;74.45;101199.48;107181;1275;169561;-85
2022/05/14 00:03:25;;;;;;;6.60;2.80;;;;;;;11.56;74.57;101197.71;107272;1280;76498;-86
2022/05/14 00:05:56;;;;;;;7.30;2.40;;;;;;;11.53;74.82;101202.58;107367;1287;74638;-85
2022/05/14 00:08:23;;;;;;;4.00;2.80;;;;;;;11.51;74.65;101200.13;107248;1281;72970;-85
2022/05/14 00:13:44;;;;;;;4.90;2.90;;;;;;;11.45;75.01;101198.46;107622;1283;60317;-85
2022/05/14 00:16:31;;;;;;;4.60;2.70;;;;;;;11.42;75.08;101198.70;107311;1284;76505;-86
2022/05/14 00:21:25;;;;;;;5.20;3.00;;;;;;;11.38;75.29;101189.04;107354;1275;60145;-85
2022/05/14 00:23:55;;;;;;;4.10;3.00;;;;;;;11.36;75.61;101189.35;107198;1285;63574;-86
2022/05/14 00:26:26;;;;;;;11.60;2.80;;;;;;;11.34;75.57;101188.95;107478;1276;60365;-85
2022/05/14 00:29:13;;;;;;;4.60;2.80;;;;;;;11.33;75.57;101188.64;107277;1280;75872;-86
2022/05/14 00:31:50;;;;;;;8.30;3.50;;;;;;;11.31;75.89;101187.40;107572;1285;71517;-85
2022/05/14 00:34:24;;;;;;;6.50;3.30;;;;;;;11.29;76.20;101188.12;107574;1284;72977;-87
2022/05/14 00:37:10;;;;;;;4.20;2.90;;;;;;;11.28;76.18;101188.02;107467;1285;62411;-86
2022/05/14 00:39:36;;;;;;;6.60;3.50;;;;;;;11.29;76.32;101190.28;107433;1279;61497;-87
2022/05/14 00:42:15;;;;;;;6.40;3.40;;;;;;;11.31;76.47;101190.58;107660;1279;76269;-87
2022/05/14 00:44:53;;;;;;;6.30;2.70;;;;;;;11.34;76.60;101193.60;107528;1285;71557;-86
2022/05/14 00:47:23;;;;;;;6.40;2.70;;;;;;;11.37;76.26;101190.77;107444;1276;73005;-86
2022/05/14 00:50:21;;;;;;;5.10;2.70;;;;;;;11.41;76.31;101190.54;107267;1287;62811;-87
2022/05/14 00:53:01;;;;;;;6.20;2.80;;;;;;;11.46;76.04;101189.97;106966;1287;60669;-87
2022/05/14 00:55:28;;;;;;;4.50;2.90;;;;;;;11.50;76.10;101189.92;107179;1279;75342;-85
2022/05/14 00:57:56;;;;;;;6.70;2.10;;;;;;;11.53;75.87;101190.12;107411;1275;73864;-86
2022/05/14 01:00:36;;;;;;;;;;;;;;;;;;;;;
2022/05/14 01:03:02;;;;;;;5.70;2.40;;;;;;;11.58;75.65;101187.41;107158;1274;167348;-84
2022/05/14 01:05:29;;;;;;;7.60;3.60;;;;;;;11.61;75.59;101186.25;107171;1286;60837;-84
2022/05/14 01:07:56;;;;;;;9.00;2.60;;;;;;;11.63;75.49;101187.21;107042;1287;76606;-83
2022/05/14 01:10:28;;;;;;;10.40;2.90;;;;;;;11.65;75.39;101188.06;107002;1287;71537;-84
2022/05/14 01:13:07;;;;;;;7.10;2.30;;;;;;;11.68;75.21;101185.30;107204;1287;72591;-83
2022/05/14 01:15:40;;;;;;;4.80;2.20;;;;;;;11.70;74.94;101178.48;107200;1287;62314;-84
2022/05/14 01:18:08;;;;;;;5.90;1.90;;;;;;;11.72;74.75;101176.49;107232;1287;61077;-83
2022/05/14 01:21:10;;;;;;;9.70;2.60;;;;;;;11.74;74.78;101169.38;107148;1285;75659;-84
2022/05/14 01:29:33;;;;;;;6.50;2.20;;;;;;;11.74;74.57;101166.84;107197;1278;60179;-83
2022/05/14 01:32:06;;;;;;;4.60;2.20;;;;;;;11.74;74.58;101172.77;107346;1285;60627;-83
2022/05/14 01:34:34;;;;;;;3.70;1.70;;;;;;;11.72;74.56;101177.69;107403;1285;76779;-83
2022/05/14 01:37:03;;;;;;;7.80;2.10;;;;;;;11.71;74.62;101177.83;107381;1285;72684;-83
2022/05/14 01:39:30;;;;;;;5.00;1.90;;;;;;;11.70;74.87;101174.40;107390;1285;71877;-83
2022/05/14 01:41:57;;;;;;;7.00;3.00;;;;;;;11.70;74.91;101173.90;107366;1283;62456;-83
2022/05/14 01:44:27;;;;;;;6.90;2.60;;;;;;;11.71;74.96;101174.70;107402;1284;61897;-83
2022/05/14 01:46:56;;;;;;;6.20;2.50;;;;;;;11.72;74.88;101174.56;107382;1285;77472;-83
2022/05/14 01:49:23;;;;;;;5.50;2.50;;;;;;;11.73;74.77;101172.87;107041;1284;71540;-83
2022/05/14 01:51:50;;;;;;;6.50;2.50;;;;;;;11.74;74.74;101170.11;107397;1285;60344;-83
2022/05/14 01:54:17;;;;;;;7.10;2.90;;;;;;;11.75;74.51;101167.17;107366;1284;62248;-83
2022/05/14 01:56:46;;;;;;;11.60;2.70;;;;;;;11.76;74.65;101173.63;107419;1285;60413;-84
2022/05/14 01:59:26;;;;;;;;;;;;;;;11.77;74.53;101168.17;107432;1284;77032;-83
2022/05/14 02:01:53;;;;;;;6.30;2.50;;;;;;;11.77;74.50;101164.19;107427;1284;71564;-83
2022/05/14 02:04:30;;;;;;;9.10;2.20;;;;;;;11.78;74.40;101165.22;107402;1285;71917;-83
2022/05/14 02:07:03;;;;;;;11.50;3.00;;;;;;;11.77;74.49;101166.34;107471;1285;63558;-83
2022/05/14 02:09:33;;;;;;;5.40;2.20;;;;;;;11.75;74.39;101157.35;106901;1276;60595;-83
2022/05/14 02:12:09;;;;;;;7.10;2.60;;;;;;;11.72;74.59;101159.65;107063;1286;77226;-83
2022/05/14 02:14:38;;;;;;;4.90;1.80;;;;;;;11.70;74.69;101158.69;106951;1286;70394;-83
2022/05/14 02:17:07;;;;;;;8.20;2.60;;;;;;;11.69;74.88;101157.76;106874;1287;60259;-83
2022/05/14 02:19:33;;;;;;;8.30;2.70;;;;;;;11.67;74.98;101153.84;106931;1287;61162;-83
2022/05/14 02:22:05;;;;;;;7.80;2.30;;;;;;;11.66;75.12;101154.80;106966;1287;60487;-83
2022/05/14 02:24:36;;;;;;;6.20;2.60;;;;;;;11.63;75.32;101149.64;106630;1288;74617;-83
2022/05/14 02:27:04;;;;;;;6.00;2.30;;;;;;;11.61;75.43;101149.58;107009;1286;72701;-83
2022/05/14 02:29:50;;;;;;;8.30;3.40;;;;;;;11.59;75.35;101155.95;106920;1287;71867;-83
2022/05/14 02:32:18;;;;;;;7.00;2.80;;;;;;;11.56;75.39;101158.02;106777;1287;62443;-83
2022/05/14 02:34:47;;;;;;;12.50;2.50;;;;;;;11.53;75.62;101159.80;106790;1286;61808;-83
2022/05/14 02:37:16;;;;;;;8.20;2.80;;;;;;;11.49;75.54;101158.52;106665;1287;75781;-83
2022/05/14 02:39:54;;;;;;;10.50;2.80;;;;;;;11.44;75.88;101158.12;106847;1287;70785;-83
2022/05/14 02:42:28;;;;;;;5.60;2.90;;;;;;;11.40;75.86;101156.47;106846;1287;73041;-83
2022/05/14 02:45:13;;;;;;;8.00;3.10;;;;;;;11.35;76.53;101160.20;106999;1275;175123;-85
2022/05/14 02:47:40;;;;;;;10.70;4.40;;;;;;;11.29;76.63;101158.79;107141;1274;173866;-83
2022/05/14 02:50:15;;;;;;;7.30;3.50;;;;;;;11.21;76.95;101161.74;107170;1285;76564;-83
2022/05/14 02:52:42;;;;;;;6.60;3.70;;;;;;;11.15;77.39;101161.55;107041;1286;72302;-84
2022/05/14 02:55:12;;;;;;;6.30;3.30;;;;;;;11.08;77.80;101161.22;107125;1286;74160;-83
2022/05/14 02:57:39;;;;;;;8.70;4.80;;;;;;;11.02;78.16;101160.46;106945;1285;63507;-84
2022/05/14 03:00:14;;;;;;;7.50;4.20;;;;;;;10.97;78.37;101158.86;107171;1285;59915;-84
2022/05/14 03:02:40;;;;;;;7.40;4.50;;;;;;;10.91;78.75;101156.67;107334;1285;75864;-84
2022/05/14 03:05:14;;;;;;;9.30;4.80;;;;;;;10.85;79.18;101153.45;107180;1284;71925;-84
2022/05/14 03:07:47;;;;;;;14.40;5.20;;;;;;;10.79;79.01;101159.55;107088;1285;73043;-83
2022/05/14 03:10:19;;;;;;;7.40;4.30;;;;;;;10.73;79.80;101159.98;107106;1287;63141;-83
2022/05/14 03:12:55;;;;;;;8.50;5.50;;;;;;;10.68;80.12;101160.04;107169;1285;60305;-84
2022/05/14 03:15:34;;;;;;;9.90;4.90;;;;;;;10.64;80.25;101168.96;107126;1287;76852;-84
2022/05/14 03:18:11;;;;;;;7.00;4.40;;;;;;;10.60;80.50;101172.92;107368;1285;72687;-84
2022/05/14 03:20:47;;;;;;;9.70;5.00;;;;;;;10.55;80.37;101167.76;107300;1285;73701;-84
2022/05/14 03:23:15;;;;;;;9.60;4.50;;;;;;;10.50;80.75;101165.59;107028;1287;62592;-84
2022/05/14 03:25:41;;;;;;;10.80;5.10;;;;;;;10.45;80.78;101168.26;107475;1285;60453;-83
2022/05/14 03:28:11;;;;;;;13.40;5.50;;;;;;;10.40;80.91;101167.72;107521;1285;61016;-83
2022/05/14 03:30:39;;;;;;;9.40;5.50;;;;;;;10.36;81.11;101169.23;107539;1285;71402;-83
2022/05/14 03:33:10;;;;;;;9.70;5.00;;;;;;;10.32;81.69;101163.79;107118;1287;72989;-83
2022/05/14 03:35:36;;;;;;;11.50;5.40;;;;;;;10.29;81.93;101166.27;107096;1285;62382;-84
2022/05/14 03:38:03;;;;;;;9.10;6.40;;;;;;;10.26;81.60;101164.08;107357;1285;59839;-84
2022/05/14 03:40:32;;;;;;;6.70;5.20;;;;;;;10.24;82.00;101163.80;107324;1285;76159;-84
2022/05/14 03:42:59;;;;;;;7.70;5.20;;;;;;;10.23;82.19;101163.73;107215;1286;70413;-84
2022/05/14 03:45:29;;;;;;;11.30;5.80;;;;;;;10.23;82.43;101163.51;107306;1285;72985;-84
2022/05/14 03:48:03;;;;;;;7.20;4.80;;;;;;;10.24;82.63;101166.81;107293;1285;63279;-84
2022/05/14 03:50:33;;;;;;;9.60;6.30;;;;;;;10.24;82.60;101162.52;107207;1274;61393;-83
2022/05/14 03:53:07;;;;;;;9.30;6.20;;;;;;;10.25;82.71;101167.02;106940;1285;78831;-84
2022/05/14 03:55:44;;;;;;;19.20;8.00;;;;;;;10.25;82.89;101167.55;107092;1285;70866;-84
2022/05/14 03:58:15;;;;;;;12.30;6.70;;;;;;;10.27;82.99;101165.61;107255;1284;73861;-84
2022/05/14 04:00:42;;;;;;;6.80;5.50;;;;;;;10.28;82.82;101161.56;107200;1285;60295;-83
2022/05/14 04:03:09;;;;;;;12.90;6.50;;;;;;;10.31;82.53;101164.45;107062;1285;60365;-83
2022/05/14 04:05:36;;;;;;;8.90;5.50;;;;;;;10.34;82.73;101165.92;107226;1284;76737;-84
2022/05/14 04:08:05;;;;;;;13.30;5.90;;;;;;;10.38;82.41;101168.70;107243;1285;61118;-84
2022/05/14 04:10:33;;;;;;;13.20;5.60;;;;;;;10.42;82.38;101177.80;107094;1285;73397;-83
2022/05/14 04:13:00;;;;;;;9.50;6.30;;;;;;;10.48;82.11;101179.35;107038;1285;62273;-84
2022/05/14 04:15:34;;;;;;;7.70;5.40;;;;;;;10.52;81.97;101176.23;107222;1285;62157;-83
2022/05/14 04:18:04;;;;;;;8.60;5.50;;;;;;;10.56;81.66;101182.14;107235;1285;75565;-83
2022/05/14 04:20:32;;;;;;;10.50;5.20;;;;;;;10.61;81.38;101182.69;107298;1284;71343;-84
2022/05/14 04:23:04;;;;;;;10.00;6.30;;;;;;;10.66;81.14;101181.13;107118;1287;72925;-84
2022/05/14 04:34:25;;;;;;;8.20;3.40;;;;;;;10.93;79.31;101197.29;107045;1287;70695;-84
2022/05/14 04:36:55;;;;;;;9.50;3.90;;;;;;;10.98;79.27;101207.74;106977;1287;73348;-84
2022/05/14 04:39:31;;;;;;;6.10;4.50;;;;;;;11.01;79.26;101205.98;106919;1287;62350;-84
2022/05/14 04:42:03;;;;;;;10.20;5.40;;;;;;;11.02;79.04;101204.13;107014;1287;60487;-84
2022/05/14 04:44:31;;;;;;;13.30;5.60;;;;;;;11.00;79.18;101208.34;107108;1286;77315;-84
2022/05/14 04:47:00;;;;;;;10.70;4.90;;;;;;;10.99;79.04;101210.40;107176;1285;72166;-83
2022/05/14 04:49:30;;;;;;;5.50;3.60;;;;;;;11.01;79.18;101215.08;107136;1287;74311;-84
2022/05/14 04:52:00;;;;;;;7.00;4.50;;;;;;;11.01;79.19;101217.64;107314;1285;63535;-84
2022/05/14 04:54:35;;;;;;;8.20;3.30;;;;;;;11.06;78.96;101220.23;107246;1287;60818;-83
2022/05/14 04:57:09;;;;;;;6.40;4.30;;;;;;;11.11;78.80;101227.27;107307;1285;75854;-84
2022/05/14 04:59:45;;;;;;;8.90;4.30;;;;;;;11.19;78.63;101221.63;107215;1281;70107;-84
2022/05/14 05:05:28;;;;;;;8.40;3.60;;;;;;;11.39;77.84;101227.60;107127;1279;63677;-83
2022/05/14 05:08:02;;;;;;;10.60;5.10;;;;;;;11.47;77.92;101231.48;106826;1287;60228;-84
2022/05/14 05:10:29;;;;;;;5.00;2.00;;;;;;;11.56;77.57;101237.64;106931;1287;78218;-84
2022/05/14 05:12:59;;;;;;;7.80;3.80;;;;;;;11.63;77.43;101238.79;106920;1287;73677;-83
2022/05/14 05:15:27;;;;;;;8.50;4.00;;;;;;;11.72;77.24;101231.94;107008;1285;70716;-84
2022/05/14 05:17:55;;;;;;;6.10;2.10;;;;;;;11.83;76.81;101233.44;107079;1287;63630;-84
2022/05/14 05:20:25;;;;;;;8.30;3.30;;;;;;;11.92;76.50;101232.64;107105;1285;60823;-84
2022/05/14 05:22:51;;;;;;;7.70;3.70;;;;;;;12.00;76.35;101234.75;107075;1287;76899;-84
2022/05/14 05:25:23;;;;;;;7.20;2.80;;;;;;;12.09;76.02;101236.29;107129;1286;72423;-84
2022/05/14 05:27:56;;;;;;;6.80;3.50;;;;;;;12.18;76.07;101235.59;106910;1287;73965;-84
2022/05/14 05:30:25;;;;;;;7.00;3.10;;;;;;;12.23;75.53;101243.69;107162;1287;61849;-85
2022/05/14 05:33:03;;;;;;;8.20;3.10;;;;;;;12.29;75.24;101245.16;107143;1286;61113;-84
2022/05/14 05:35:42;;;;;;;5.50;3.00;;;;;;;12.38;75.27;101244.98;107043;1287;75788;-84
2022/05/14 05:38:15;;;;;;;10.70;4.10;;;;;;;12.49;75.18;101243.80;107183;1285;72347;-84
2022/05/14 05:40:51;;;;;;;10.40;3.30;;;;;;;12.61;74.67;101248.48;107067;1287;73791;-84
2022/05/14 05:43:18;;;;;;;7.80;2.60;;;;;;;12.72;74.71;101248.77;107024;1287;62386;-84
2022/05/14 05:45:48;;;;;;;6.60;3.00;;;;;;;12.85;73.97;101250.39;107026;1287;60540;-83
2022/05/14 05:48:21;;;;;;;7.20;2.40;;;;;;;12.96;73.47;101259.00;107071;1285;77084;-84
2022/05/14 05:50:48;;;;;;;7.80;3.00;;;;;;;13.07;72.92;101253.17;107093;1286;72343;-84
2022/05/14 05:53:18;;;;;;;5.70;2.60;;;;;;;13.18;72.73;101259.67;107234;1287;72933;-84
2022/05/14 05:58:48;;;;;;;8.00;2.80;;;;;;;13.41;72.08;101261.59;106459;1287;61717;-84
2022/05/14 06:01:26;;;;;;;11.10;3.00;;;;;;;13.55;71.71;101266.08;107044;1286;77721;-84
2022/05/14 06:03:58;;;;;;;7.10;2.30;;;;;;;13.65;71.06;101263.48;107106;1287;70149;-85
2022/05/14 06:06:41;;;;;;;10.00;2.70;;;;;;;13.74;70.60;101265.26;106780;1288;73969;-85
2022/05/14 06:09:29;;;;;;;8.80;2.40;;;;;;;13.81;70.08;101266.85;106933;1278;169280;-85
2022/05/14 06:11:58;;;;;;;8.40;2.30;;;;;;;13.89;69.76;101270.61;106717;1277;180373;-85
2022/05/14 06:14:25;;;;;;;8.20;3.20;;;;;;;13.95;69.48;101269.59;107275;1284;75528;-83
2022/05/14 06:16:53;;;;;;;7.20;2.80;;;;;;;14.00;69.56;101272.14;107238;1284;72287;-84
2022/05/14 06:19:20;;;;;;;6.70;2.60;;;;;;;14.04;69.33;101271.13;107166;1285;73674;-83
2022/05/14 06:21:46;;;;;;;8.10;2.80;;;;;;;14.02;69.14;101270.64;107043;1284;63477;-83
2022/05/14 06:24:13;;;;;;;7.60;2.90;;;;;;;14.01;69.36;101269.32;107155;1285;60286;-84
2022/05/14 06:26:40;;;;;;;8.00;3.10;;;;;;;14.07;69.33;101268.62;107189;1285;60745;-84
2022/05/14 06:29:10;;;;;;;11.40;3.00;;;;;;;14.10;69.32;101266.48;107320;1284;72537;-84
2022/05/14 06:31:38;;;;;;;9.70;2.90;;;;;;;14.06;69.03;101265.73;107170;1285;72992;-84
2022/05/14 06:34:11;;;;;;;8.30;3.40;;;;;;;14.08;69.70;101267.44;107164;1285;62138;-84
2022/05/14 06:36:40;;;;;;;13.30;3.60;;;;;;;14.16;69.63;101276.09;107319;1284;60702;-84
2022/05/14 06:39:07;;;;;;;11.20;2.60;;;;;;;14.20;69.15;101274.83;107182;1285;75721;-84
2022/05/14 06:41:34;;;;;;;7.90;3.00;;;;;;;14.21;69.24;101277.55;107305;1284;60102;-85
2022/05/14 06:44:00;;;;;;;10.30;3.10;;;;;;;14.21;69.06;101280.63;107348;1284;73990;-84
2022/05/14 06:46:28;;;;;;;11.10;3.40;;;;;;;14.22;68.93;101280.69;107313;1284;62225;-84
2022/05/14 06:48:55;;;;;;;8.00;2.50;;;;;;;14.31;68.73;101281.02;107090;1284;60393;-84
2022/05/14 06:51:26;;;;;;;7.70;3.50;;;;;;;14.43;68.78;101276.70;107370;1284;75710;-84
2022/05/14 06:53:59;;;;;;;8.00;3.10;;;;;;;14.55;68.47;101276.73;107337;1285;71230;-85
2022/05/14 06:56:39;;;;;;;7.90;3.20;;;;;;;14.66;68.31;101278.93;107650;1284;73351;-84
2022/05/14 06:59:12;;;;;;;8.40;3.10;;;;;;;14.74;68.12;101280.20;107303;1285;62298;-84
2022/05/14 07:01:41;;;;;;;6.70;3.00;;;;;;;14.85;68.09;101282.89;107165;1284;60593;-83
2022/05/14 07:07:07;;;;;;;11.30;3.00;;;;;;;15.06;66.96;101287.88;107191;1284;72644;-84
2022/05/14 07:09:42;;;;;;;11.00;3.50;;;;;;;15.16;66.27;101286.61;107053;1274;172260;-86
2022/05/14 07:12:17;;;;;;;12.60;3.90;;;;;;;15.23;65.73;101284.79;106972;1277;64358;-88
2022/05/14 07:14:51;;;;;;;8.90;3.20;;;;;;;15.29;65.92;101288.10;107207;1286;60360;-85
2022/05/14 07:17:34;;;;;;;8.60;2.90;;;;;;;15.35;65.53;101296.30;106994;1286;76742;-87
2022/05/14 07:20:11;;;;;;;8.70;2.50;;;;;;;15.41;65.57;101289.77;107033;1285;72147;-87
2022/05/14 07:22:39;;;;;;;5.80;2.50;;;;;;;15.57;65.13;101294.42;107102;1287;74639;-85
2022/05/14 07:25:32;;;;;;;9.40;2.80;;;;;;;15.75;64.66;101292.87;107018;1287;62379;-85
2022/05/14 07:28:05;;;;;;;8.90;2.80;;;;;;;15.87;64.20;101295.64;106957;1286;62319;-85
2022/05/14 07:30:33;;;;;;;11.30;3.50;;;;;;;16.04;63.72;101298.50;107238;1286;76075;-85
2022/05/14 07:33:06;;;;;;;10.20;3.00;;;;;;;16.16;63.39;101295.57;107270;1287;73225;-85
2022/05/14 07:35:41;;;;;;;7.40;2.70;;;;;;;16.25;62.43;101301.06;107403;1287;74855;-85
2022/05/14 07:38:18;;;;;;;14.10;3.40;;;;;;;16.24;62.02;101304.98;107540;1286;60954;-85
2022/05/14 07:40:45;;;;;;;10.90;3.20;;;;;;;16.22;62.33;101300.44;107467;1278;59631;-83
2022/05/14 07:43:22;;;;;;;8.60;3.20;;;;;;;16.17;62.16;101307.16;107456;1286;76366;-84
2022/05/14 07:45:59;;;;;;;13.40;3.80;;;;;;;16.10;62.38;101307.11;107074;1286;71337;-84
2022/05/14 07:48:35;;;;;;;6.30;2.80;;;;;;;15.96;62.55;101312.33;107201;1287;73861;-84
2022/05/14 07:51:09;;;;;;;11.60;2.90;;;;;;;15.96;63.25;101303.88;106995;1287;60523;-84
2022/05/14 07:53:39;;;;;;;19.10;3.20;;;;;;;16.11;63.83;101303.26;106998;1287;61695;-85
2022/05/14 07:56:21;;;;;;;6.20;2.50;;;;;;;16.20;62.81;101307.67;106983;1287;75821;-84
2022/05/14 07:58:50;;;;;;;11.30;2.80;;;;;;;16.20;62.11;101307.62;107204;1286;70277;-84
2022/05/14 08:01:17;;;;;;;7.90;2.90;;;;;;;16.24;62.64;101300.03;107180;1287;73135;-84
2022/05/14 08:03:46;;;;;;;13.20;3.20;;;;;;;16.29;61.69;101306.52;107019;1287;60433;-85
2022/05/14 08:06:17;;;;;;;24.60;3.10;;;;;;;16.33;61.83;101309.55;107151;1286;61625;-84
2022/05/14 08:08:44;;;;;;;10.30;3.60;;;;;;;16.45;61.63;101306.84;107229;1287;76037;-85
2022/05/14 08:11:11;;;;;;;9.60;3.00;;;;;;;16.49;61.34;101313.34;107018;1287;73494;-85
2022/05/14 08:13:42;;;;;;;12.90;4.20;;;;;;;16.53;61.56;101314.30;107186;1287;73982;-84
2022/05/14 08:16:11;;;;;;;13.70;3.20;;;;;;;16.60;61.20;101318.49;106985;1287;61765;-85
2022/05/14 08:18:39;;;;;;;9.90;3.50;;;;;;;16.64;61.15;101310.19;106640;1287;60830;-85
2022/05/14 08:26:50;;;;;;;7.80;2.90;;;;;;;17.01;60.86;101306.55;106824;1287;74396;-84
2022/05/14 08:29:24;;;;;;;8.10;2.70;;;;;;;17.04;60.35;101306.23;107108;1287;61663;-85
2022/05/14 08:31:51;;;;;;;12.50;4.00;;;;;;;17.07;60.56;101308.88;106952;1287;61069;-84
2022/05/14 08:34:25;;;;;;;9.90;3.10;;;;;;;17.16;59.57;101308.60;107164;1286;77167;-85
2022/05/14 08:36:54;;;;;;;10.20;3.70;;;;;;;17.21;58.04;101307.11;107113;1287;71355;-85
2022/05/14 08:39:28;;;;;;;12.60;3.40;;;;;;;17.23;58.72;101309.73;107080;1287;73408;-84
2022/05/14 08:42:03;;;;;;;12.00;3.30;;;;;;;17.18;58.76;101313.72;107090;1287;61052;-84
2022/05/14 08:44:33;;;;;;;10.60;3.50;;;;;;;17.04;58.81;101317.48;106947;1287;60302;-84
2022/05/14 08:47:05;;;;;;;7.60;2.80;;;;;;;17.03;59.51;101313.55;106816;1287;76480;-85
2022/05/14 08:49:42;;;;;;;8.20;3.50;;;;;;;17.11;58.95;101314.16;107117;1287;72349;-84
2022/05/14 08:52:16;;;;;;;12.70;3.50;;;;;;;17.22;58.91;101315.13;107044;1287;74083;-84
2022/05/14 08:54:42;;;;;;;7.00;2.80;;;;;;;17.31;57.56;101322.69;106857;1287;60807;-81
2022/05/14 08:57:24;;;;;;;8.70;2.50;;;;;;;17.38;56.87;101318.36;107122;1287;60569;-82
2022/05/14 08:59:57;;;;;;;9.20;2.80;;;;;;;17.47;56.78;101318.59;106952;1287;75266;-81
2022/05/14 09:02:43;;;;;;;9.00;3.10;;;;;;;17.63;57.30;101313.68;106710;1287;71198;-81
2022/05/14 09:05:28;;;;;;;11.90;3.90;;;;;;;17.74;56.83;101325.73;107037;1287;75401;-81
2022/05/14 09:07:55;;;;;;;8.40;3.10;;;;;;;17.80;56.65;101323.77;106936;1287;60626;-81
2022/05/14 09:11:04;;;;;;;7.60;2.30;;;;;;;17.95;56.40;101318.70;107032;1287;63358;-82
2022/05/14 09:13:53;;;;;;;10.20;3.60;;;;;;;18.08;55.20;101319.86;106698;1287;76467;-83
2022/05/14 09:16:31;;;;;;;12.90;3.80;;;;;;;18.14;54.96;101322.98;106829;1287;71414;-84
2022/05/14 09:18:58;;;;;;;12.90;3.40;;;;;;;18.12;55.31;101324.40;107075;1287;71810;-84
2022/05/14 09:21:36;;;;;;;7.60;3.30;;;;;;;18.15;55.42;101323.27;106895;1287;61375;-85
2022/05/14 09:24:16;;;;;;;10.80;4.30;;;;;;;18.16;55.16;101325.67;107016;1286;61282;-84
2022/05/14 09:26:43;;;;;;;10.30;2.70;;;;;;;18.21;55.03;101321.89;107126;1287;76913;-84
2022/05/14 09:29:35;;;;;;;9.90;3.00;;;;;;;18.27;55.29;101322.00;103467;1309;600564;-87
2022/05/14 09:32:19;;;;;;;13.70;3.40;;;;;;;18.35;55.11;101322.48;105792;1286;61452;-85
2022/05/14 09:34:47;;;;;;;8.40;2.60;;;;;;;18.37;55.28;101325.04;106334;1286;60514;-85
2022/05/14 09:37:41;;;;;;;9.70;3.30;;;;;;;18.51;54.35;101318.95;106092;1286;75615;-85
2022/05/14 09:40:30;;;;;;;10.00;3.10;;;;;;;18.78;54.55;101318.23;106111;1284;71548;-86
2022/05/14 09:43:14;;;;;;;9.10;2.60;;;;;;;18.80;53.00;101324.45;105566;1283;707212;-85
2022/05/14 09:46:04;;;;;;;8.80;3.00;;;;;;;18.63;53.47;101328.89;106344;1284;60741;-86
2022/05/14 09:48:55;;;;;;;9.70;3.20;;;;;;;18.60;53.57;101327.69;106496;1282;60964;-86
2022/05/14 09:51:37;;;;;;;15.50;3.10;;;;;;;18.67;54.01;101318.11;106269;1284;72805;-87
2022/05/14 09:54:44;;;;;;;10.90;4.10;;;;;;;18.90;53.74;101329.48;106246;1283;71828;-87
2022/05/14 09:57:39;;;;;;;10.30;3.20;;;;;;;18.85;52.06;101330.13;105453;1289;74433;-86
2022/05/14 10:00:25;;;;;;;8.90;3.30;;;;;;;18.77;52.34;101322.96;105982;1284;60624;-89
2022/05/14 10:03:49;;;;;;;8.30;3.00;;;;;;;18.82;52.61;101319.64;106018;1283;61277;-86
2022/05/14 10:06:29;;;;;;;8.60;2.90;;;;;;;19.02;52.59;101323.05;105786;1284;74092;-86
2022/05/14 10:09:13;;;;;;;10.90;2.80;;;;;;;19.27;52.26;101322.03;105977;1283;72598;-86
2022/05/14 10:11:44;;;;;;;6.70;2.60;;;;;;;19.46;50.69;101325.46;105985;1284;74043;-86
2022/05/14 10:14:27;;;;;;;10.10;2.90;;;;;;;19.25;49.77;101327.96;106169;1284;61744;-87
2022/05/14 10:17:15;;;;;;;10.60;2.10;;;;;;;19.11;50.42;101317.55;106098;1284;61443;-86
2022/05/14 10:20:17;;;;;;;9.90;2.40;;;;;;;19.21;50.56;101319.92;106092;1284;74698;-87
2022/05/14 10:29:56;;;;;;;7.80;2.30;;;;;;;18.82;51.36;101328.41;105739;1284;61159;-85
2022/05/14 10:32:31;;;;;;;10.80;2.60;;;;;;;19.01;49.79;101314.41;106175;1284;62009;-87
2022/05/14 10:35:19;;;;;;;4.90;1.80;;;;;;;19.16;49.04;101325.05;106230;1283;74440;-85
2022/05/14 10:38:05;;;;;;;14.70;3.30;;;;;;;19.18;48.96;101317.45;105977;1283;72591;-88
2022/05/14 10:40:36;;;;;;;13.10;3.30;;;;;;;19.23;49.14;101324.42;106194;1284;73366;-86
2022/05/14 10:43:03;;;;;;;10.80;2.90;;;;;;;19.29;49.16;101324.92;105728;1284;61689;-88
2022/05/14 10:45:33;;;;;;;9.60;3.00;;;;;;;19.28;49.31;101332.17;105754;1284;59582;-86
2022/05/14 10:48:00;;;;;;;8.40;3.00;;;;;;;19.42;48.16;101337.04;105817;1284;72500;-87
2022/05/14 10:50:29;;;;;;;9.20;2.60;;;;;;;19.54;47.75;101333.85;105947;1284;59569;-86
2022/05/14 10:52:58;;;;;;;13.90;2.80;;;;;;;19.58;46.70;101343.05;105894;1286;73081;-84
2022/05/14 10:55:34;;;;;;;12.80;3.10;;;;;;;19.58;47.24;101329.84;106022;1283;61527;-86
2022/05/14 10:58:07;;;;;;;10.20;3.30;;;;;;;19.71;47.57;101328.98;105843;1284;61627;-85
2022/05/14 11:00:42;;;;;;;12.10;2.80;;;;;;;19.77;48.02;101330.08;106164;1283;73073;-85
2022/05/14 11:03:12;;;;;;;8.80;2.20;;;;;;;19.74;48.54;101319.13;105754;1286;71076;-84
2022/05/14 11:06:11;;;;;;;9.80;2.00;;;;;;;19.91;46.64;101331.83;106371;1281;73206;-84
2022/05/14 11:08:43;;;;;;;12.10;3.10;;;;;;;20.11;45.54;101326.37;106424;1281;60514;-84
2022/05/14 11:11:23;;;;;;;8.90;2.20;;;;;;;20.12;46.39;101324.37;106359;1281;60743;-83
2022/05/14 11:14:02;;;;;;;9.20;2.30;;;;;;;20.23;45.40;101330.69;106313;1281;73384;-83
2022/05/14 11:16:45;;;;;;;8.70;2.80;;;;;;;20.18;45.29;101331.90;106973;1281;71927;-84
2022/05/14 11:19:25;;;;;;;7.50;2.10;;;;;;;20.20;45.03;101334.11;108006;1281;73002;-85
2022/05/14 11:21:54;;;;;;;9.70;2.80;;;;;;;20.25;44.72;101329.26;108362;1280;62012;-84
2022/05/14 11:24:42;;;;;;;10.30;2.40;;;;;;;20.32;44.86;101330.11;107804;1281;61603;-85
2022/05/14 11:27:10;;;;;;;8.80;2.10;;;;;;;20.41;44.91;101334.51;108258;1280;73639;-85
2022/05/14 11:30:00;;;;;;;11.40;2.90;;;;;;;20.36;44.90;101327.09;107331;1281;71343;-84
2022/05/14 11:32:40;;;;;;;11.60;3.00;;;;;;;20.49;45.14;101326.73;107010;1274;74963;-84
2022/05/14 11:35:07;;;;;;;10.80;2.60;;;;;;;20.59;43.80;101327.59;108009;1273;60629;-84
2022/05/14 11:37:38;;;;;;;11.40;2.70;;;;;;;20.54;44.07;101324.00;106895;1274;61726;-84
2022/05/14 11:40:19;;;;;;;10.60;2.80;;;;;;;20.33;44.44;101321.03;106880;1274;73344;-85
2022/05/14 11:42:51;;;;;;;11.70;2.40;;;;;;;20.18;45.43;101319.34;106938;1274;71515;-85
2022/05/14 11:45:26;;;;;;;10.10;2.30;;;;;;;20.20;44.29;101326.61;106602;1275;73121;-84
2022/05/14 11:48:34;;;;;;;13.70;2.90;;;;;;;20.37;45.32;101333.23;106599;1274;60443;-87
2022/05/14 11:51:24;;;;;;;9.90;2.20;;;;;;;20.58;43.86;101322.45;106218;1274;60684;-87
2022/05/14 11:54:01;;;;;;;10.40;2.90;;;;;;;20.89;42.92;101319.93;107051;1272;73349;-85
2022/05/14 11:56:40;;;;;;;11.80;2.70;;;;;;;20.92;41.56;101325.04;106996;1273;72833;-85
2022/05/14 11:59:17;;;;;;;10.70;2.40;;;;;;;20.87;41.55;101314.80;106969;1273;72932;-85
2022/05/14 12:01:45;;;;;;;13.70;2.60;;;;;;;21.02;41.64;101324.73;106919;1274;60355;-85
2022/05/14 12:04:21;;;;;;;11.70;3.40;;;;;;;21.39;40.08;101314.92;107073;1274;62247;-84
2022/05/14 12:07:19;;;;;;;8.00;2.60;;;;;;;21.91;39.17;101324.46;106999;1274;74349;-83
2022/05/14 12:10:04;;;;;;;6.60;2.10;;;;;;;22.05;38.62;101312.29;106947;1274;71396;-84
2022/05/14 12:12:48;;;;;;;10.40;2.80;;;;;;;21.75;38.47;101321.27;106987;1274;73159;-84
2022/05/14 12:15:22;;;;;;;7.50;1.80;;;;;;;21.50;38.52;101316.73;106919;1272;60411;-85
2022/05/14 12:17:50;;;;;;;11.10;2.10;;;;;;;21.29;38.53;101312.95;106642;1274;61635;-84
2022/05/14 12:20:29;;;;;;;8.40;2.30;;;;;;;21.11;39.11;101314.46;106765;1274;74473;-84
2022/05/14 12:23:03;;;;;;;15.40;2.50;;;;;;;20.89;39.60;101319.55;106776;1273;72066;-85
2022/05/14 12:25:42;;;;;;;8.60;2.40;;;;;;;20.99;40.13;101321.52;106612;1274;72735;-84
2022/05/14 12:28:23;;;;;;;8.40;2.60;;;;;;;21.43;38.90;101310.55;106901;1274;62103;-84
2022/05/14 12:34:00;;;;;;;8.80;2.40;;;;;;;21.74;38.61;101313.41;106761;1274;74079;-86